Time;durP1;ratioP1;P1;durP2;ratioP2;P2;SDS_P1;SDS_P2;PMS_P1;PMS_P2;Temp;Humidity;BMP_temperature;BMP_pressure;BME280_temperature;BME280_humidity;BME280_pressure;Samples;Min_cycle;Max_cycle;Signal;HPM_P1;HPM_P2
2022/11/06 00:01:08;;;;;;;10.35;2.60;;;13.40;99.90;;;;;;5093724;28;20016;-45
2022/11/06 00:03:35;;;;;;;8.68;2.40;;;13.50;99.90;;;;;;5093472;28;20400;-44
2022/11/06 00:08:50;;;;;;;;;;;13.50;99.90;;;;;;5114928;28;20383;-47
2022/11/06 00:11:17;;;;;;;10.38;2.47;;;13.50;99.90;;;;;;5114177;28;19904;-50
2022/11/06 00:13:43;;;;;;;12.27;3.15;;;13.50;99.90;;;;;;5113661;28;20025;-50
2022/11/06 00:16:11;;;;;;;13.07;2.53;;;13.50;99.90;;;;;;5113986;28;20176;-47
2022/11/06 00:18:38;;;;;;;14.00;2.92;;;13.50;99.90;;;;;;5113724;28;20027;-45
2022/11/06 00:21:09;;;;;;;10.15;2.88;;;13.50;99.90;;;;;;5113992;28;20027;-45
2022/11/06 00:23:34;;;;;;;14.55;2.95;;;13.50;99.90;;;;;;5113832;28;20039;-54
2022/11/06 00:26:04;;;;;;;12.52;3.22;;;13.50;99.90;;;;;;5114001;28;20080;-48
2022/11/06 00:28:29;;;;;;;;;;;13.50;99.90;;;;;;5113284;28;20112;-49
2022/11/06 00:31:06;;;;;;;8.68;2.80;;;13.50;99.90;;;;;;5114126;28;19973;-54
2022/11/06 00:33:33;;;;;;;16.88;2.80;;;13.50;99.90;;;;;;5113755;28;20015;-48
2022/11/06 00:36:02;;;;;;;10.00;2.42;;;13.50;99.90;;;;;;5113780;28;20358;-52
2022/11/06 00:38:28;;;;;;;16.67;3.45;;;13.50;99.90;;;;;;5113735;28;20536;-48
2022/11/06 00:40:54;;;;;;;15.50;3.00;;;13.50;99.90;;;;;;5113517;28;20020;-50
2022/11/06 00:43:19;;;;;;;19.13;2.88;;;13.50;99.90;;;;;;5113346;28;20552;-49
2022/11/06 00:45:45;;;;;;;11.30;2.83;;;13.50;99.90;;;;;;5113391;28;20394;-45
2022/11/06 00:48:10;;;;;;;11.95;2.83;;;13.50;99.90;;;;;;5113530;28;20027;-53
2022/11/06 00:50:36;;;;;;;9.40;2.33;;;13.50;99.90;;;;;;5113513;28;20072;-51
2022/11/06 00:53:02;;;;;;;14.32;2.85;;;13.50;99.90;;;;;;5084771;28;20023;-51
2022/11/06 00:55:27;;;;;;;12.63;2.70;;;13.60;99.90;;;;;;5113231;28;20034;-47
2022/11/06 00:57:53;;;;;;;11.10;2.67;;;13.60;99.90;;;;;;5113087;28;20416;-46
2022/11/06 01:00:19;;;;;;;14.68;2.78;;;13.60;99.90;;;;;;5107724;28;20028;-53
2022/11/06 01:02:45;;;;;;;14.18;3.00;;;13.60;99.90;;;;;;5108758;28;20051;-48
2022/11/06 01:05:12;;;;;;;12.60;2.90;;;13.60;99.90;;;;;;5113109;28;20027;-47
2022/11/06 01:07:37;;;;;;;12.82;3.30;;;13.60;99.90;;;;;;5113146;27;20024;-49
2022/11/06 01:10:04;;;;;;;9.68;2.80;;;13.60;99.90;;;;;;5112854;28;20110;-48
2022/11/06 01:12:31;;;;;;;11.48;2.72;;;13.60;99.90;;;;;;5113204;28;20118;-45
2022/11/06 01:14:57;;;;;;;12.75;2.20;;;13.60;99.90;;;;;;5112868;28;20110;-47
2022/11/06 01:17:23;;;;;;;16.00;2.72;;;13.60;99.90;;;;;;5112851;28;20142;-49
2022/11/06 01:19:49;;;;;;;10.90;3.00;;;13.60;99.90;;;;;;5112671;28;20067;-46
2022/11/06 01:22:15;;;;;;;12.48;2.90;;;13.60;99.90;;;;;;5112440;28;20106;-44
2022/11/06 01:24:41;;;;;;;10.13;2.38;;;13.70;99.90;;;;;;5112604;28;20069;-44
2022/11/06 01:27:06;;;;;;;9.60;2.60;;;13.60;99.90;;;;;;5111946;28;20504;-45
2022/11/06 01:29:32;;;;;;;11.90;2.47;;;13.60;99.90;;;;;;5108395;28;20023;-48
2022/11/06 01:31:58;;;;;;;11.05;2.67;;;13.60;99.90;;;;;;5086673;28;20024;-53
2022/11/06 01:34:24;;;;;;;12.15;2.70;;;13.60;99.90;;;;;;5092152;28;20020;-56
2022/11/06 01:36:50;;;;;;;12.88;2.80;;;13.60;99.90;;;;;;5091963;28;20066;-53
2022/11/06 01:39:15;;;;;;;17.73;3.60;;;13.60;99.90;;;;;;5091790;28;20072;-49
2022/11/06 01:41:47;;;;;;;14.38;3.08;;;13.60;99.90;;;;;;5091914;28;20036;-47
2022/11/06 01:44:39;;;;;;;16.35;3.30;;;13.60;99.90;;;;;;5091758;28;20512;-46
2022/11/06 01:47:27;;;;;;;16.65;2.88;;;13.60;99.90;;;;;;5091883;28;20024;-48
2022/11/06 01:49:56;;;;;;;20.75;3.70;;;13.60;99.90;;;;;;5091709;28;20031;-49
2022/11/06 01:52:24;;;;;;;13.55;3.25;;;13.60;99.90;;;;;;5091616;28;20491;-49
2022/11/06 01:54:55;;;;;;;12.75;3.10;;;13.60;99.90;;;;;;5091647;28;20073;-50
2022/11/06 01:57:21;;;;;;;17.45;3.00;;;13.60;99.90;;;;;;5091628;28;20616;-53
2022/11/06 01:59:48;;;;;;;13.20;2.67;;;13.60;99.90;;;;;;5091476;28;20107;-50
2022/11/06 02:02:15;;;;;;;15.15;2.80;;;13.60;99.90;;;;;;5090054;28;20032;-46
2022/11/06 02:04:43;;;;;;;11.57;2.50;;;13.60;99.90;;;;;;5091627;28;20066;-49
2022/11/06 02:07:10;;;;;;;8.98;2.40;;;13.70;99.90;;;;;;5084132;28;20383;-51
2022/11/06 02:09:35;;;;;;;10.23;1.80;;;13.60;99.90;;;;;;5112027;27;20027;-53
2022/11/06 02:12:13;;;;;;;8.23;1.95;;;13.60;99.90;;;;;;5111558;28;20093;-50
2022/11/06 02:14:41;;;;;;;7.55;1.88;;;13.60;99.90;;;;;;5111831;28;20038;-56
2022/11/06 02:17:31;;;;;;;7.70;2.13;;;13.60;99.90;;;;;;5111672;28;20023;-51
2022/11/06 02:20:09;;;;;;;14.35;2.60;;;13.60;99.90;;;;;;5111534;28;20054;-50
2022/11/06 02:22:58;;;;;;;12.20;2.08;;;13.60;99.90;;;;;;5086035;28;20039;-54
2022/11/06 02:25:40;;;;;;;11.10;2.50;;;13.60;99.90;;;;;;5111760;28;20051;-52
2022/11/06 02:28:21;;;;;;;11.70;2.45;;;13.60;99.90;;;;;;5111865;28;20469;-45
2022/11/06 02:30:50;;;;;;;16.80;2.90;;;13.60;99.90;;;;;;5111557;28;20122;-47
2022/11/06 02:33:24;;;;;;;16.08;2.72;;;13.60;99.90;;;;;;5111507;28;20110;-52
2022/11/06 02:35:59;;;;;;;12.30;2.42;;;13.60;99.90;;;;;;5111282;28;20030;-48
2022/11/06 02:38:41;;;;;;;10.68;1.77;;;13.60;99.90;;;;;;5111453;28;20131;-50
2022/11/06 02:41:11;;;;;;;13.57;2.13;;;13.60;99.90;;;;;;5111351;28;20543;-44
2022/11/06 02:43:41;;;;;;;13.20;2.20;;;13.60;99.90;;;;;;5111288;28;20096;-50
2022/11/06 02:46:16;;;;;;;16.77;2.58;;;13.70;99.90;;;;;;5111113;28;20031;-47
2022/11/06 02:48:46;;;;;;;15.05;2.05;;;13.60;99.90;;;;;;5111301;28;20019;-48
2022/11/06 02:51:15;;;;;;;16.83;2.42;;;13.70;99.90;;;;;;5111159;28;20344;-51
2022/11/06 02:53:42;;;;;;;;;;;13.70;99.90;;;;;;5111599;28;20382;-47
2022/11/06 02:56:13;;;;;;;9.95;2.40;;;13.70;99.90;;;;;;5111047;28;19915;-46
2022/11/06 02:58:58;;;;;;;15.13;2.30;;;13.70;99.90;;;;;;5111003;28;20035;-50
2022/11/06 03:01:33;;;;;;;16.00;2.78;;;13.70;99.90;;;;;;5110995;28;20030;-50
2022/11/06 03:04:07;;;;;;;17.30;2.63;;;13.60;99.90;;;;;;5109686;28;20392;-48
2022/11/06 03:06:40;;;;;;;17.45;2.60;;;13.60;99.90;;;;;;5110854;28;20337;-50
2022/11/06 03:09:17;;;;;;;10.35;2.30;;;13.70;99.90;;;;;;5111069;28;20379;-49
2022/11/06 03:11:43;;;;;;;12.60;2.35;;;13.70;99.90;;;;;;5110928;28;20027;-49
2022/11/06 03:14:12;;;;;;;15.18;4.45;;;13.70;99.90;;;;;;5111136;28;20073;-47
2022/11/06 03:16:52;;;;;;;16.45;2.78;;;13.70;99.90;;;;;;5110995;28;20073;-46
2022/11/06 03:19:18;;;;;;;12.80;3.28;;;13.70;99.90;;;;;;5110762;28;20048;-50
2022/11/06 03:21:56;;;;;;;12.93;2.85;;;13.70;99.90;;;;;;5110757;28;20038;-48
2022/11/06 03:24:35;;;;;;;9.30;2.13;;;13.70;99.90;;;;;;5110770;28;20446;-49
2022/11/06 03:27:09;;;;;;;16.52;2.50;;;13.70;99.90;;;;;;5110611;28;20027;-51
2022/11/06 03:29:50;;;;;;;9.57;2.15;;;13.70;99.90;;;;;;5110970;28;20027;-47
2022/11/06 03:32:30;;;;;;;10.20;2.58;;;13.80;99.90;;;;;;5110948;28;20016;-44
2022/11/06 03:35:11;;;;;;;16.45;2.63;;;13.80;99.90;;;;;;5110709;28;20027;-44
2022/11/06 03:37:44;;;;;;;6.28;1.70;;;13.80;99.90;;;;;;5110687;28;20027;-52
2022/11/06 03:40:15;;;;;;;8.95;1.95;;;13.70;99.90;;;;;;5110754;28;20019;-46
2022/11/06 03:42:41;;;;;;;8.85;2.10;;;13.70;99.90;;;;;;5110550;28;20031;-48
2022/11/06 03:45:15;;;;;;;10.90;1.98;;;13.70;99.90;;;;;;5110855;28;20023;-49
2022/11/06 03:47:54;;;;;;;7.18;1.83;;;13.80;99.90;;;;;;5110468;28;20095;-48
2022/11/06 03:50:38;;;;;;;11.25;2.20;;;13.80;99.90;;;;;;5113204;28;20093;-49
2022/11/06 03:53:16;;;;;;;8.73;2.10;;;13.80;99.90;;;;;;5114702;28;20020;-51
2022/11/06 03:55:50;;;;;;;9.73;2.38;;;13.80;99.90;;;;;;5114494;28;20054;-49
2022/11/06 03:58:27;;;;;;;10.05;2.15;;;13.80;99.90;;;;;;5088283;28;20026;-50
2022/11/06 04:00:55;;;;;;;14.65;2.85;;;13.80;99.90;;;;;;5114179;27;20031;-53
2022/11/06 04:03:28;;;;;;;7.30;2.35;;;13.80;99.90;;;;;;5114330;28;20453;-50
2022/11/06 04:06:04;;;;;;;15.00;2.60;;;13.80;99.90;;;;;;5114182;28;20016;-47
2022/11/06 04:14:06;;;;;;;11.82;2.45;;;13.80;99.90;;;;;;5114184;28;20507;-45
2022/11/06 04:16:44;;;;;;;14.88;2.80;;;13.80;99.90;;;;;;5114174;28;20036;-45
2022/11/06 04:19:15;;;;;;;14.45;3.17;;;13.80;99.90;;;;;;5087774;28;20058;-46
2022/11/06 04:22:12;;;;;;;18.08;3.55;;;13.80;99.90;;;;;;5113675;28;20020;-50
2022/11/06 04:28:17;;;;;;;24.83;4.00;;;13.80;99.90;;;;;;5096131;28;20151;-47
2022/11/06 04:31:07;;;;;;;22.48;3.65;;;13.80;99.90;;;;;;5092667;28;20097;-52
2022/11/06 04:33:39;;;;;;;31.05;4.28;;;13.80;99.90;;;;;;5091776;28;20024;-51
2022/11/06 04:36:28;;;;;;;21.23;4.00;;;13.80;99.90;;;;;;5093234;28;20062;-51
2022/11/06 04:39:26;;;;;;;27.05;3.97;;;13.80;99.90;;;;;;5093260;28;20028;-46
2022/11/06 04:42:18;;;;;;;22.02;3.63;;;13.80;99.90;;;;;;5076704;28;20028;-48
2022/11/06 04:44:52;;;;;;;26.27;3.92;;;13.80;99.90;;;;;;5092987;28;20024;-48
2022/11/06 04:47:21;;;;;;;18.65;3.45;;;13.80;99.90;;;;;;5092899;28;20488;-46
2022/11/06 04:49:49;;;;;;;27.77;4.33;;;13.80;99.90;;;;;;5092816;28;20065;-44
2022/11/06 04:52:24;;;;;;;15.05;3.33;;;13.80;99.90;;;;;;5093021;28;20025;-44
2022/11/06 04:54:50;;;;;;;16.20;3.60;;;13.80;99.90;;;;;;5092782;28;20510;-44
2022/11/06 04:57:15;;;;;;;22.33;3.97;;;13.70;99.90;;;;;;5092778;28;20020;-46
2022/11/06 04:59:41;;;;;;;20.73;4.15;;;13.70;99.90;;;;;;5093102;28;20136;-50
2022/11/06 05:02:06;;;;;;;22.45;3.60;;;13.80;99.90;;;;;;5091247;28;20431;-47
2022/11/06 05:04:32;;;;;;;16.70;3.03;;;13.80;99.90;;;;;;5092587;28;20137;-46
2022/11/06 05:06:58;;;;;;;18.10;3.08;;;13.70;99.90;;;;;;5092556;28;20021;-47
2022/11/06 05:09:24;;;;;;;17.75;3.65;;;13.70;99.90;;;;;;5092818;28;20036;-54
2022/11/06 05:11:50;;;;;;;29.48;4.20;;;13.70;99.90;;;;;;5092342;28;20459;-51
2022/11/06 05:14:16;;;;;;;20.27;4.50;;;13.70;99.90;;;;;;5092917;28;20141;-52
2022/11/06 05:16:41;;;;;;;25.00;3.53;;;13.80;99.90;;;;;;5092597;28;20482;-52
2022/11/06 05:19:07;;;;;;;16.83;3.10;;;13.80;99.90;;;;;;5092333;28;20523;-50
2022/11/06 05:24:17;;;;;;;23.00;3.22;;;13.80;99.90;;;;;;5092502;28;20506;-50
2022/11/06 05:26:43;;;;;;;18.80;3.75;;;13.80;99.90;;;;;;5092546;28;20103;-54
2022/11/06 05:29:09;;;;;;;17.52;3.47;;;13.80;99.90;;;;;;5092233;28;20037;-46
2022/11/06 05:31:35;;;;;;;22.35;3.10;;;13.70;99.90;;;;;;5092418;28;20035;-47
2022/11/06 05:34:00;;;;;;;22.20;3.03;;;13.70;99.90;;;;;;5092035;28;20016;-47
2022/11/06 05:36:26;;;;;;;25.33;3.92;;;13.70;99.90;;;;;;5092081;28;20173;-46
2022/11/06 05:38:52;;;;;;;23.38;3.50;;;13.70;99.90;;;;;;5091951;28;20035;-50
2022/11/06 05:41:17;;;;;;;24.23;3.83;;;13.70;99.90;;;;;;5092150;28;20020;-50
2022/11/06 05:43:43;;;;;;;27.63;4.20;;;13.70;99.90;;;;;;5092028;28;20036;-50
2022/11/06 05:46:08;;;;;;;19.08;3.88;;;13.70;99.90;;;;;;5091874;28;20636;-48
2022/11/06 05:48:34;;;;;;;21.77;4.53;;;13.70;99.90;;;;;;5092132;28;20028;-47
2022/11/06 05:51:05;;;;;;;27.67;4.90;;;13.70;99.90;;;;;;5091690;28;20070;-48
2022/11/06 05:53:32;;;;;;;23.88;5.20;;;13.70;99.90;;;;;;5091760;28;20089;-50
2022/11/06 05:55:58;;;;;;;32.25;5.00;;;13.70;99.90;;;;;;5091700;28;20376;-45
2022/11/06 05:58:24;;;;;;;31.13;4.75;;;13.70;99.90;;;;;;5091607;28;20485;-47
2022/11/06 06:00:50;;;;;;;22.25;4.00;;;13.70;99.90;;;;;;5091666;28;20544;-48
2022/11/06 06:03:16;;;;;;;26.15;5.03;;;13.70;99.90;;;;;;5091367;28;20118;-49
2022/11/06 06:05:41;;;;;;;18.45;3.92;;;13.70;99.90;;;;;;5091687;28;20130;-43
2022/11/06 06:08:07;;;;;;;24.80;4.38;;;13.70;99.90;;;;;;5090226;28;20123;-47
2022/11/06 06:10:33;;;;;;;29.38;4.68;;;13.70;99.90;;;;;;5091503;28;20024;-51
2022/11/06 06:12:58;;;;;;;25.00;4.97;;;13.70;99.90;;;;;;5091085;28;20032;-45
2022/11/06 06:15:24;;;;;;;22.23;4.70;;;13.70;99.90;;;;;;5091283;28;20085;-46
2022/11/06 06:17:49;;;;;;;29.33;4.25;;;13.70;99.90;;;;;;5091324;28;20036;-50
2022/11/06 06:20:15;;;;;;;31.65;4.43;;;13.70;99.90;;;;;;5091221;28;20036;-48
2022/11/06 06:22:41;;;;;;;26.85;4.90;;;13.70;99.90;;;;;;5091195;28;20361;-52
2022/11/06 06:25:06;;;;;;;26.75;4.28;;;13.60;99.90;;;;;;5091479;28;20465;-45
2022/11/06 06:27:33;;;;;;;21.77;4.88;;;13.70;99.90;;;;;;5091354;28;20496;-51
2022/11/06 06:29:58;;;;;;;26.20;5.00;;;13.70;99.90;;;;;;5091279;28;20032;-47
2022/11/06 06:32:24;;;;;;;16.77;4.40;;;13.70;99.90;;;;;;5091094;28;20043;-52
2022/11/06 06:34:50;;;;;;;18.30;4.43;;;13.70;99.90;;;;;;5091185;28;20030;-52
2022/11/06 06:37:15;;;;;;;23.88;3.53;;;13.70;99.90;;;;;;5090988;28;20024;-49
2022/11/06 06:39:41;;;;;;;19.10;4.78;;;13.70;99.90;;;;;;5090802;28;20043;-49
2022/11/06 06:42:06;;;;;;;21.45;3.88;;;13.70;99.90;;;;;;5091101;28;20035;-47
2022/11/06 06:44:32;;;;;;;27.10;4.05;;;13.70;99.90;;;;;;5090790;28;20020;-45
2022/11/06 06:46:58;;;;;;;22.00;3.15;;;13.70;99.90;;;;;;5091077;28;20020;-54
2022/11/06 06:49:23;;;;;;;19.30;3.50;;;13.70;99.90;;;;;;5090760;28;20074;-48
2022/11/06 06:51:49;;;;;;;17.02;3.83;;;13.60;99.90;;;;;;5090847;28;20024;-47
2022/11/06 06:54:15;;;;;;;19.17;3.45;;;13.70;99.90;;;;;;5090968;28;20392;-53
2022/11/06 06:56:41;;;;;;;16.25;3.80;;;13.60;99.90;;;;;;5090615;28;20477;-47
2022/11/06 06:59:07;;;;;;;24.60;4.25;;;13.70;99.90;;;;;;5090850;28;20027;-54
2022/11/06 07:01:33;;;;;;;25.80;4.47;;;13.70;99.90;;;;;;5090666;28;20024;-54
2022/11/06 07:03:58;;;;;;;23.70;4.15;;;13.70;99.90;;;;;;5089607;28;20036;-50
2022/11/06 07:06:24;;;;;;;18.55;3.28;;;13.70;99.90;;;;;;5090509;28;20507;-46
2022/11/06 07:08:54;;;;;;;22.45;4.07;;;13.70;99.90;;;;;;5090815;28;20027;-49
2022/11/06 07:11:20;;;;;;;23.58;3.40;;;13.70;99.90;;;;;;5090528;28;20460;-45
2022/11/06 07:13:45;;;;;;;21.90;3.63;;;13.70;99.90;;;;;;5086896;28;20026;-50
2022/11/06 07:16:11;;;;;;;16.88;3.00;;;13.70;99.90;;;;;;5086284;28;20020;-52
2022/11/06 07:18:38;;;;;;;22.27;3.53;;;13.70;99.90;;;;;;5088329;28;20095;-53
2022/11/06 07:21:06;;;;;;;21.80;3.50;;;13.70;99.90;;;;;;5088392;28;20028;-50
2022/11/06 07:23:32;;;;;;;25.15;3.80;;;13.70;99.90;;;;;;5086585;28;20366;-51
2022/11/06 07:25:58;;;;;;;18.00;4.15;;;13.70;99.90;;;;;;5093542;28;20016;-49
2022/11/06 07:28:23;;;;;;;17.13;3.45;;;13.70;99.90;;;;;;5093674;28;20109;-46
2022/11/06 07:30:49;;;;;;;29.77;3.90;;;13.70;99.90;;;;;;5088316;28;20028;-45
2022/11/06 07:33:15;;;;;;;27.08;4.00;;;13.70;99.90;;;;;;5098434;28;20444;-49
2022/11/06 07:35:40;;;;;;;25.50;3.88;;;13.70;99.90;;;;;;5092298;28;20027;-52
2022/11/06 07:38:06;;;;;;;25.95;4.00;;;13.70;99.90;;;;;;5079404;28;20104;-48
2022/11/06 07:40:33;;;;;;;26.17;3.55;;;13.70;99.90;;;;;;5090161;28;20020;-45
2022/11/06 07:43:06;;;;;;;27.60;3.33;;;13.70;99.90;;;;;;5091842;28;20533;-45
2022/11/06 07:45:32;;;;;;;23.88;5.20;;;13.70;99.90;;;;;;5093877;28;20549;-46
2022/11/06 07:47:58;;;;;;;30.02;3.30;;;13.60;99.90;;;;;;5079537;28;20036;-45
2022/11/06 07:50:25;;;;;;;23.45;4.30;;;13.70;99.90;;;;;;5094448;28;20024;-49
2022/11/06 07:52:50;;;;;;;21.95;3.75;;;13.70;99.90;;;;;;5086592;28;20065;-45
2022/11/06 07:55:16;;;;;;;14.75;3.13;;;13.70;99.90;;;;;;5090824;28;20110;-48
2022/11/06 07:57:42;;;;;;;24.42;2.83;;;13.70;99.90;;;;;;5093539;28;20016;-44
2022/11/06 08:00:08;;;;;;;19.52;2.75;;;13.70;99.90;;;;;;5093483;28;20124;-50
2022/11/06 08:02:34;;;;;;;16.50;3.25;;;13.70;99.90;;;;;;5093615;28;20122;-48
2022/11/06 08:04:59;;;;;;;19.05;2.92;;;13.70;99.90;;;;;;5093810;28;20102;-51
2022/11/06 08:07:25;;;;;;;20.30;2.97;;;13.70;99.90;;;;;;5093593;28;20028;-51
2022/11/06 08:09:51;;;;;;;20.92;3.10;;;13.70;99.90;;;;;;5093629;28;20111;-46
2022/11/06 08:12:16;;;;;;;16.40;3.28;;;13.70;99.90;;;;;;5092506;28;20039;-52
2022/11/06 08:14:42;;;;;;;12.48;2.55;;;13.70;99.90;;;;;;5093717;28;20043;-50
2022/11/06 08:17:07;;;;;;;18.25;3.22;;;13.70;99.90;;;;;;5092404;28;20079;-49
2022/11/06 08:19:33;;;;;;;11.23;2.55;;;13.80;99.90;;;;;;5093321;28;20052;-46
2022/11/06 08:21:59;;;;;;;18.08;2.70;;;13.80;99.90;;;;;;5093594;28;20055;-51
2022/11/06 08:24:24;;;;;;;11.00;2.58;;;13.70;99.90;;;;;;5093765;28;20057;-46
2022/11/06 08:26:50;;;;;;;8.38;2.15;;;13.70;99.90;;;;;;5093553;28;20043;-47
2022/11/06 08:29:16;;;;;;;10.20;2.58;;;13.70;99.90;;;;;;5093603;28;20105;-46
2022/11/06 08:31:42;;;;;;;14.90;3.08;;;13.70;99.90;;;;;;5093318;28;20024;-47
2022/11/06 08:34:08;;;;;;;23.38;2.80;;;13.70;99.90;;;;;;5093145;28;20404;-50
2022/11/06 08:36:49;;;;;;;15.25;3.45;;;13.70;99.90;;;;;;5092872;28;20096;-51
2022/11/06 08:39:15;;;;;;;15.85;2.80;;;13.70;99.90;;;;;;5093338;28;20028;-48
2022/11/06 08:41:41;;;;;;;14.82;2.85;;;13.80;99.90;;;;;;5093371;28;20511;-51
2022/11/06 08:44:07;;;;;;;18.13;2.58;;;13.70;99.90;;;;;;5093163;28;20071;-47
2022/11/06 08:46:33;;;;;;;22.00;3.75;;;13.70;99.90;;;;;;5093125;28;20056;-53
2022/11/06 08:48:58;;;;;;;19.33;3.47;;;13.80;99.90;;;;;;5091756;28;20036;-50
2022/11/06 08:51:24;;;;;;;17.70;3.08;;;13.70;99.90;;;;;;5093071;28;20017;-51
2022/11/06 08:53:49;;;;;;;17.73;3.38;;;13.70;99.90;;;;;;5093134;28;20554;-46
2022/11/06 08:56:15;;;;;;;13.93;3.13;;;13.70;99.90;;;;;;5092844;28;20476;-49
2022/11/06 08:58:41;;;;;;;17.33;2.85;;;13.70;99.90;;;;;;5092946;28;20106;-51
2022/11/06 09:01:07;;;;;;;15.95;2.60;;;13.70;99.90;;;;;;5092730;28;20020;-47
2022/11/06 09:03:32;;;;;;;20.58;3.08;;;13.70;99.90;;;;;;5092808;28;20035;-50
2022/11/06 09:05:58;;;;;;;15.20;2.92;;;13.70;99.90;;;;;;5093079;28;20024;-52
2022/11/06 09:08:24;;;;;;;16.40;2.78;;;13.70;99.90;;;;;;5091422;28;20032;-49
2022/11/06 09:10:49;;;;;;;10.38;2.40;;;13.70;99.90;;;;;;5092771;28;20085;-50
2022/11/06 09:13:15;;;;;;;10.60;2.40;;;13.70;99.90;;;;;;5092448;28;20024;-54
2022/11/06 09:15:41;;;;;;;11.90;2.53;;;13.70;99.90;;;;;;5092650;28;20153;-55
2022/11/06 09:18:07;;;;;;;13.05;2.45;;;13.70;99.90;;;;;;5092538;28;20032;-49
2022/11/06 09:20:33;;;;;;;15.05;2.30;;;13.70;99.90;;;;;;5092360;28;20047;-48
2022/11/06 09:23:01;;;;;;;10.80;2.50;;;13.70;99.90;;;;;;5092444;28;20036;-47
2022/11/06 09:25:28;;;;;;;8.63;2.08;;;13.70;99.90;;;;;;5092375;28;20020;-51
2022/11/06 09:27:53;;;;;;;14.23;2.72;;;13.70;99.90;;;;;;5092386;28;20323;-46
2022/11/06 09:30:20;;;;;;;13.85;2.80;;;13.70;99.90;;;;;;5092191;28;20031;-46
2022/11/06 09:32:51;;;;;;;12.88;2.20;;;13.70;99.90;;;;;;5092418;28;20024;-49
2022/11/06 09:35:17;;;;;;;11.95;2.08;;;13.70;99.90;;;;;;5092124;28;20544;-46
2022/11/06 09:37:43;;;;;;;7.22;1.67;;;13.70;99.90;;;;;;5092200;28;20099;-48
2022/11/06 09:40:22;;;;;;;14.45;2.17;;;13.70;99.90;;;;;;5092124;28;20115;-53
2022/11/06 09:42:54;;;;;;;12.75;2.05;;;13.70;99.90;;;;;;5090586;28;20048;-46
2022/11/06 09:45:23;;;;;;;10.68;1.73;;;13.70;99.90;;;;;;5088643;28;20020;-53
2022/11/06 09:48:09;;;;;;;11.55;1.85;;;13.60;99.90;;;;;;5090540;28;20146;-53
2022/11/06 09:50:44;;;;;;;13.90;1.65;;;13.60;99.90;;;;;;5091504;28;20450;-47
2022/11/06 09:53:26;;;;;;;10.50;1.83;;;13.60;99.90;;;;;;5091591;28;20032;-48
2022/11/06 09:55:52;;;;;;;9.57;1.92;;;13.60;99.90;;;;;;5091833;28;20037;-46
2022/11/06 09:58:25;;;;;;;9.95;1.30;;;13.50;99.90;;;;;;5091815;28;20028;-46
2022/11/06 10:00:53;;;;;;;11.73;1.67;;;13.40;99.90;;;;;;5088963;28;20019;-50
2022/11/06 10:03:32;;;;;;;20.15;1.90;;;13.30;99.90;;;;;;5091501;28;20067;-51
2022/11/06 10:05:57;;;;;;;16.20;1.73;;;13.30;99.90;;;;;;5091158;28;20023;-47
2022/11/06 10:08:26;;;;;;;9.32;1.35;;;13.20;99.90;;;;;;5090709;28;20028;-47
2022/11/06 10:11:14;;;;;;;11.07;1.15;;;13.20;99.90;;;;;;5091580;28;20059;-50
2022/11/06 10:13:57;;;;;;;10.23;1.02;;;13.10;99.90;;;;;;5091194;28;20127;-50
2022/11/06 10:16:49;;;;;;;15.27;1.98;;;13.10;99.90;;;;;;5091501;28;20081;-46
2022/11/06 10:19:34;;;;;;;9.50;1.70;;;13.00;99.90;;;;;;5080295;28;20044;-48
2022/11/06 10:22:25;;;;;;;6.60;1.77;;;13.00;99.90;;;;;;5090277;28;20228;-49
2022/11/06 10:25:07;;;;;;;10.13;1.27;;;12.90;99.90;;;;;;5089910;28;20028;-45
2022/11/06 10:27:39;;;;;;;6.35;1.38;;;12.90;99.90;;;;;;5089451;28;20020;-48
2022/11/06 10:30:05;;;;;;;8.35;1.30;;;12.90;99.90;;;;;;5090305;28;20461;-47
2022/11/06 10:33:14;;;;;;;14.18;1.60;;;12.90;99.90;;;;;;5090412;28;20055;-47
2022/11/06 10:35:49;;;;;;;7.35;1.30;;;13.00;99.90;;;;;;5090058;28;20035;-47
2022/11/06 10:38:23;;;;;;;13.82;1.85;;;13.00;99.90;;;;;;5088989;28;20111;-51
2022/11/06 10:40:50;;;;;;;11.57;1.85;;;13.00;99.90;;;;;;5088517;28;20110;-49
2022/11/06 10:43:49;;;;;;;9.55;1.75;;;13.00;99.90;;;;;;5089690;28;20040;-47
2022/11/06 10:46:41;;;;;;;12.40;2.00;;;13.00;99.90;;;;;;5065822;28;20055;-51
2022/11/06 10:49:31;;;;;;;10.23;2.45;;;13.00;99.90;;;;;;5089663;28;20066;-49
2022/11/06 10:52:17;;;;;;;11.23;2.13;;;13.00;99.90;;;;;;5090021;28;20043;-48
2022/11/06 10:55:00;;;;;;;12.43;1.73;;;13.00;99.90;;;;;;5090812;28;20483;-45
2022/11/06 10:57:29;;;;;;;9.93;2.05;;;13.00;99.90;;;;;;5091002;28;20024;-52
2022/11/06 10:59:54;;;;;;;10.48;1.92;;;13.00;99.90;;;;;;5088839;28;20363;-49
2022/11/06 11:02:28;;;;;;;14.10;2.10;;;13.00;99.90;;;;;;5090955;28;20611;-48
2022/11/06 11:04:53;;;;;;;18.20;2.30;;;13.00;99.90;;;;;;5090032;28;20043;-46
2022/11/06 11:07:20;;;;;;;10.77;2.08;;;13.00;99.90;;;;;;5090610;28;20505;-53
2022/11/06 11:09:48;;;;;;;12.93;2.65;;;13.00;99.90;;;;;;5090571;28;20031;-50
2022/11/06 11:12:24;;;;;;;9.02;2.42;;;13.10;99.90;;;;;;5090603;28;20038;-51
2022/11/06 11:15:08;;;;;;;8.75;1.80;;;13.10;99.90;;;;;;5090133;28;20488;-48
2022/11/06 11:17:34;;;;;;;14.93;2.40;;;13.10;99.90;;;;;;5089373;28;20545;-46
2022/11/06 11:20:01;;;;;;;11.85;2.40;;;13.20;99.90;;;;;;5089795;28;20127;-45
2022/11/06 11:22:26;;;;;;;9.85;2.22;;;13.10;99.90;;;;;;5090306;28;20417;-45
2022/11/06 11:25:07;;;;;;;13.05;3.30;;;13.20;99.90;;;;;;5090206;28;20028;-45
2022/11/06 11:27:43;;;;;;;6.93;2.28;;;13.20;99.90;;;;;;5090240;28;20545;-45
2022/11/06 11:30:25;;;;;;;11.70;2.83;;;13.20;99.90;;;;;;5090500;28;20535;-47
2022/11/06 11:32:52;;;;;;;11.65;3.15;;;13.20;99.90;;;;;;5090427;28;20056;-48
2022/11/06 11:35:22;;;;;;;9.27;1.65;;;13.20;99.90;;;;;;5090189;28;20036;-52
2022/11/06 11:37:48;;;;;;;8.55;1.60;;;13.20;99.90;;;;;;5090572;28;20023;-50
2022/11/06 11:40:34;;;;;;;13.32;1.40;;;13.20;99.90;;;;;;5090434;28;20016;-49
2022/11/06 11:43:31;;;;;;;14.07;1.60;;;13.10;99.90;;;;;;5090182;28;20480;-48
2022/11/06 11:46:09;;;;;;;13.45;1.67;;;13.10;99.90;;;;;;5081746;28;20071;-46
2022/11/06 11:48:48;;;;;;;9.73;2.55;;;13.10;99.90;;;;;;5090189;28;20575;-50
2022/11/06 11:51:30;;;;;;;6.70;1.60;;;13.00;99.90;;;;;;5090261;28;20069;-45
2022/11/06 11:54:02;;;;;;;12.10;2.03;;;13.00;99.90;;;;;;5090237;28;20039;-46
2022/11/06 11:56:28;;;;;;;11.45;2.58;;;13.00;99.90;;;;;;5081827;28;20024;-51
2022/11/06 11:59:00;;;;;;;15.63;2.78;;;12.90;99.90;;;;;;5086773;28;20020;-44
2022/11/06 12:01:37;;;;;;;16.80;2.42;;;12.90;99.90;;;;;;5089992;28;20090;-48
2022/11/06 12:04:28;;;;;;;17.48;2.60;;;12.90;99.90;;;;;;5076924;28;20028;-46
2022/11/06 12:06:56;;;;;;;18.52;2.65;;;12.90;99.90;;;;;;5072411;28;20027;-52
2022/11/06 12:09:24;;;;;;;10.77;2.53;;;12.90;99.90;;;;;;5073837;28;20036;-46
2022/11/06 12:11:51;;;;;;;12.35;2.55;;;12.90;99.90;;;;;;5091916;28;20063;-47
2022/11/06 12:14:35;;;;;;;10.57;2.20;;;12.90;99.90;;;;;;5093237;28;20027;-46
2022/11/06 12:17:16;;;;;;;19.80;2.97;;;12.90;99.90;;;;;;5092957;28;20024;-51
2022/11/06 12:19:57;;;;;;;13.18;2.50;;;12.90;99.90;;;;;;5093007;28;20206;-47
2022/11/06 12:22:40;;;;;;;12.27;2.33;;;12.90;99.90;;;;;;5091550;28;20036;-51
2022/11/06 12:25:18;;;;;;;14.43;2.38;;;13.00;99.90;;;;;;5092805;28;20027;-52
2022/11/06 12:27:48;;;;;;;18.17;2.58;;;13.00;99.90;;;;;;5091416;28;20476;-48
2022/11/06 12:30:17;;;;;;;12.23;1.83;;;13.10;99.90;;;;;;5092869;28;20027;-47
2022/11/06 12:33:03;;;;;;;15.43;2.40;;;13.10;99.90;;;;;;5093042;28;20023;-46
2022/11/06 12:35:37;;;;;;;18.92;2.20;;;13.20;99.90;;;;;;5092587;28;20123;-47
2022/11/06 12:38:25;;;;;;;10.20;2.58;;;13.20;99.90;;;;;;5091481;28;20111;-56
2022/11/06 12:41:01;;;;;;;11.40;2.77;;;13.20;99.90;;;;;;5092664;28;20027;-53
2022/11/06 12:43:43;;;;;;;14.48;2.50;;;13.30;99.90;;;;;;5092564;28;20645;-51
2022/11/06 12:46:27;;;;;;;12.35;2.03;;;13.40;99.90;;;;;;5092351;28;20043;-49
2022/11/06 12:49:14;;;;;;;13.48;2.33;;;13.40;99.90;;;;;;5088802;28;20024;-46
2022/11/06 12:51:55;;;;;;;18.33;2.38;;;13.50;99.90;;;;;;5092075;28;20044;-46
2022/11/06 12:54:43;;;;;;;16.90;3.45;;;13.60;99.90;;;;;;5092538;28;20030;-46
2022/11/06 12:57:39;;;;;;;12.43;2.37;;;13.60;99.90;;;;;;5082224;28;20032;-46
2022/11/06 13:00:15;;;;;;;18.63;2.20;;;13.60;99.90;;;;;;5092675;28;20101;-51
2022/11/06 13:02:52;;;;;;;16.65;2.28;;;13.60;99.90;;;;;;5092625;28;20028;-46
2022/11/06 13:05:30;;;;;;;18.48;2.60;;;13.70;99.90;;;;;;5092495;28;20495;-50
2022/11/06 13:08:13;;;;;;;18.77;2.20;;;13.70;99.90;;;;;;5092878;28;20097;-49
2022/11/06 13:10:53;;;;;;;12.18;1.92;;;13.80;99.90;;;;;;5092398;28;20046;-50
2022/11/06 13:13:43;;;;;;;22.58;3.45;;;13.70;99.90;;;;;;5092515;28;20051;-49